createdAt,value
2018-09-11T00:01:03.679Z,17.85
2018-09-11T00:03:32.647Z,17.76
2018-09-11T00:06:01.776Z,17.57
2018-09-11T00:08:30.878Z,17.50
2018-09-11T00:11:00.170Z,17.58
2018-09-11T00:13:29.459Z,17.55
2018-09-11T00:15:59.610Z,17.43
2018-09-11T00:18:28.877Z,17.38
2018-09-11T00:20:58.560Z,17.20
2018-09-11T00:23:28.157Z,17.08
2018-09-11T00:25:57.373Z,17.01
2018-09-11T00:28:26.479Z,17.05
2018-09-11T00:30:55.759Z,16.98
2018-09-11T00:33:25.223Z,16.89
2018-09-11T00:35:54.223Z,16.70
2018-09-11T00:38:23.166Z,16.72
2018-09-11T00:40:52.375Z,16.75
2018-09-11T00:43:21.449Z,16.74
2018-09-11T00:45:51.147Z,16.63
2018-09-11T00:48:21.487Z,16.61
2018-09-11T00:50:50.612Z,16.47
2018-09-11T00:53:20.841Z,16.36
2018-09-11T00:55:51.089Z,16.33
2018-09-11T00:58:20.330Z,16.30
2018-09-11T01:00:49.698Z,16.23
2018-09-11T01:03:19.750Z,16.27
2018-09-11T01:05:48.855Z,16.29
2018-09-11T01:08:18.173Z,16.28
2018-09-11T01:10:47.862Z,16.34
2018-09-11T01:13:17.646Z,16.31
2018-09-11T01:15:47.726Z,16.35
2018-09-11T01:18:21.927Z,16.39
2018-09-11T01:20:51.203Z,16.47
2018-09-11T01:23:20.943Z,16.45
2018-09-11T01:25:50.403Z,16.48
2018-09-11T01:28:19.546Z,16.47
2018-09-11T01:30:48.793Z,16.46
2018-09-11T01:33:18.002Z,16.42
2018-09-11T01:35:47.048Z,16.42
2018-09-11T01:38:16.595Z,16.47
2018-09-11T01:40:45.819Z,16.44
2018-09-11T01:43:15.124Z,16.34
2018-09-11T01:45:44.817Z,16.18
2018-09-11T01:48:13.910Z,16.16
2018-09-11T01:50:43.673Z,16.29
2018-09-11T01:53:12.754Z,16.21
2018-09-11T01:55:42.012Z,16.24
2018-09-11T01:58:11.392Z,16.23
2018-09-11T02:00:40.843Z,16.21
2018-09-11T02:03:10.297Z,16.20
2018-09-11T02:05:39.393Z,16.19
2018-09-11T02:08:09.163Z,16.08
2018-09-11T02:10:38.642Z,16.12
2018-09-11T02:13:08.674Z,16.28
2018-09-11T02:15:38.819Z,16.39
2018-09-11T02:18:07.994Z,16.42
2018-09-11T02:20:37.542Z,16.48
2018-09-11T02:23:06.979Z,16.44
2018-09-11T02:25:36.633Z,16.49
2018-09-11T02:28:06.184Z,16.55
2018-09-11T02:30:35.303Z,16.49
2018-09-11T02:33:04.570Z,16.48
2018-09-11T02:35:34.102Z,16.45
2018-09-11T02:38:03.377Z,16.45
2018-09-11T02:40:32.907Z,16.38
2018-09-11T02:43:03.466Z,16.36
2018-09-11T02:45:32.547Z,16.35
2018-09-11T02:48:01.605Z,16.35
2018-09-11T02:50:30.748Z,16.31
2018-09-11T02:53:00.206Z,16.31
2018-09-11T02:55:30.478Z,16.30
2018-09-11T02:57:59.703Z,16.30
2018-09-11T03:00:28.934Z,16.29
2018-09-11T03:02:59.063Z,16.25
2018-09-11T03:05:28.566Z,16.25
2018-09-11T03:07:58.318Z,16.25
2018-09-11T03:10:27.815Z,16.20
2018-09-11T03:12:57.172Z,16.18
2018-09-11T03:15:26.372Z,16.19
2018-09-11T03:17:55.875Z,16.22
2018-09-11T03:20:25.100Z,16.19
2018-09-11T03:22:54.519Z,16.15
2018-09-11T03:25:24.002Z,16.12
2018-09-11T03:27:53.879Z,16.16
2018-09-11T03:30:23.400Z,16.12
2018-09-11T03:32:53.532Z,16.15
2018-09-11T03:35:23.029Z,16.09
2018-09-11T03:37:52.806Z,16.07
2018-09-11T03:40:22.305Z,16.08
2018-09-11T03:42:51.812Z,16.06
2018-09-11T03:45:21.702Z,16.05
2018-09-11T03:47:51.744Z,16.05
2018-09-11T03:50:21.311Z,16.03
2018-09-11T03:52:50.562Z,16.04
2018-09-11T03:55:20.162Z,16.07
2018-09-11T03:57:49.585Z,16.04
2018-09-11T04:00:18.944Z,15.99
2018-09-11T04:02:49.247Z,15.93
2018-09-11T04:05:18.832Z,15.97
2018-09-11T04:07:48.656Z,15.95
2018-09-11T04:10:18.756Z,15.95
2018-09-11T04:12:48.281Z,15.93
2018-09-11T04:15:17.783Z,15.92
2018-09-11T04:17:47.720Z,15.89
2018-09-11T04:20:17.183Z,15.94
2018-09-11T04:22:46.731Z,15.97
2018-09-11T04:25:16.211Z,15.98
2018-09-11T04:27:46.171Z,15.88
2018-09-11T04:30:15.439Z,15.96
2018-09-11T04:32:44.902Z,16.16
2018-09-11T04:35:14.729Z,16.07
2018-09-11T04:37:44.386Z,15.99
2018-09-11T04:40:14.076Z,16.01
2018-09-11T04:42:43.585Z,15.96
2018-09-11T04:45:13.330Z,15.91
2018-09-11T04:47:42.956Z,15.89
2018-09-11T04:50:12.490Z,15.86
2018-09-11T04:52:41.999Z,15.84
2018-09-11T04:55:11.736Z,15.84
2018-09-11T04:57:41.795Z,15.81
2018-09-11T05:00:11.322Z,15.86
2018-09-11T05:02:41.822Z,15.84
2018-09-11T05:05:11.351Z,15.86
2018-09-11T05:07:40.906Z,15.87
2018-09-11T05:10:10.343Z,15.85
2018-09-11T05:12:39.839Z,15.84
2018-09-11T05:15:09.363Z,15.90
2018-09-11T05:17:39.357Z,15.90
2018-09-11T05:20:09.873Z,15.89
2018-09-11T05:22:39.706Z,15.90
2018-09-11T05:25:09.229Z,15.89
2018-09-11T05:27:38.976Z,15.90
2018-09-11T05:30:08.683Z,15.93
2018-09-11T05:32:38.783Z,15.97
2018-09-11T05:35:08.299Z,15.96
2018-09-11T05:37:37.810Z,15.98
2018-09-11T05:40:07.340Z,16.01
2018-09-11T05:42:36.808Z,15.98
2018-09-11T05:45:06.790Z,15.98
2018-09-11T05:47:36.207Z,16.04
2018-09-11T05:50:06.146Z,16.07
2018-09-11T05:52:35.406Z,16.12
2018-09-11T05:55:04.999Z,16.14
2018-09-11T05:57:34.417Z,16.14
2018-09-11T06:00:04.317Z,16.15
2018-09-11T06:02:34.527Z,16.15
2018-09-11T06:05:04.119Z,16.17
2018-09-11T06:07:34.126Z,16.26
2018-09-11T06:10:03.837Z,16.25
2018-09-11T06:12:33.771Z,16.26
2018-09-11T06:15:03.286Z,16.26
2018-09-11T06:17:33.866Z,16.29
2018-09-11T06:20:03.934Z,16.29
2018-09-11T06:22:34.038Z,16.30
2018-09-11T06:25:03.509Z,16.20
2018-09-11T06:27:34.001Z,16.33
2018-09-11T06:30:04.415Z,16.36
2018-09-11T06:32:34.342Z,16.41
2018-09-11T06:35:04.195Z,16.40
2018-09-11T06:37:33.906Z,16.40
2018-09-11T06:40:03.638Z,16.45
2018-09-11T06:42:33.931Z,16.47
2018-09-11T06:45:03.875Z,16.51
2018-09-11T06:47:33.759Z,16.52
2018-09-11T06:50:03.161Z,16.55
2018-09-11T06:52:32.989Z,16.62
2018-09-11T06:55:02.526Z,16.66
2018-09-11T06:57:32.399Z,16.70
2018-09-11T07:00:01.917Z,16.83
2018-09-11T07:02:31.403Z,16.92
2018-09-11T07:05:01.505Z,17.01
2018-09-11T07:07:31.916Z,17.10
2018-09-11T07:10:01.830Z,17.18
2018-09-11T07:12:31.094Z,17.39
2018-09-11T07:15:00.319Z,17.41
2018-09-11T07:17:29.870Z,17.62
2018-09-11T07:19:59.994Z,17.76
2018-09-11T07:22:29.845Z,17.77
2018-09-11T07:25:00.503Z,17.79
2018-09-11T07:27:30.132Z,18.00
2018-09-11T07:29:59.618Z,18.10
2018-09-11T07:32:29.220Z,18.05
2018-09-11T07:34:59.224Z,18.17
2018-09-11T07:37:29.389Z,18.23
2018-09-11T07:39:59.311Z,18.34
2018-09-11T07:42:29.016Z,18.56
2018-09-11T07:44:58.271Z,18.84
2018-09-11T07:47:28.042Z,18.75
2018-09-11T07:49:58.318Z,18.79
2018-09-11T07:52:28.613Z,18.60
2018-09-11T07:54:58.776Z,18.68
2018-09-11T07:57:28.863Z,18.96
2018-09-11T07:59:58.647Z,19.08
2018-09-11T08:02:28.130Z,19.00
2018-09-11T08:04:57.622Z,18.85
2018-09-11T08:07:27.573Z,18.79
2018-09-11T08:09:56.850Z,18.87
2018-09-11T08:12:26.131Z,18.96
2018-09-11T08:14:55.632Z,18.98
2018-09-11T08:17:25.593Z,19.08
2018-09-11T08:19:55.458Z,19.32
2018-09-11T08:22:25.222Z,19.60
2018-09-11T08:24:54.694Z,19.81
2018-09-11T08:27:23.927Z,19.77
2018-09-11T08:29:53.561Z,19.74
2018-09-11T08:32:22.975Z,19.67
2018-09-11T08:34:53.027Z,19.92
2018-09-11T08:37:22.422Z,20.32
2018-09-11T08:39:51.723Z,20.25
2018-09-11T08:42:21.086Z,21.08
2018-09-11T08:44:50.837Z,20.44
2018-09-11T08:47:20.700Z,20.54
2018-09-11T08:49:49.960Z,20.55
2018-09-11T08:52:19.495Z,20.76
2018-09-11T08:54:49.851Z,20.78
2018-09-11T08:57:20.287Z,20.49
2018-09-11T08:59:50.263Z,20.66
2018-09-11T09:02:19.947Z,20.78
2018-09-11T09:04:49.846Z,20.85
2018-09-11T09:07:19.736Z,21.56
2018-09-11T09:09:49.373Z,21.72
2018-09-11T09:12:19.451Z,21.33
2018-09-11T09:14:49.246Z,20.97
2018-09-11T09:17:18.789Z,20.95
2018-09-11T09:19:49.197Z,21.72
2018-09-11T09:22:18.926Z,22.12
2018-09-11T09:24:49.596Z,23.41
2018-09-11T09:27:19.369Z,23.30
2018-09-11T09:29:49.256Z,24.78
2018-09-11T09:32:19.184Z,22.94
2018-09-11T09:34:48.669Z,23.63
2018-09-11T09:37:18.843Z,22.77
2018-09-11T09:39:48.187Z,23.43
2018-09-11T09:42:18.785Z,24.07
2018-09-11T09:44:48.372Z,25.16
2018-09-11T09:47:17.778Z,23.96
2018-09-11T09:49:47.274Z,24.94
2018-09-11T09:52:16.634Z,25.43
2018-09-11T09:54:46.058Z,24.66
2018-09-11T09:57:15.627Z,24.67
2018-09-11T09:59:45.139Z,25.27
2018-09-11T10:02:19.918Z,26.04
2018-09-11T10:04:49.488Z,26.40
2018-09-11T10:07:20.223Z,26.54
2018-09-11T10:09:49.773Z,25.75
2018-09-11T10:12:19.384Z,26.87
2018-09-11T10:14:48.915Z,27.03
2018-09-11T10:17:18.820Z,26.86
2018-09-11T10:19:48.314Z,26.75
2018-09-11T10:22:18.235Z,26.83
2018-09-11T10:24:47.719Z,26.43
2018-09-11T10:27:17.450Z,26.89
2018-09-11T10:29:47.751Z,26.91
2018-09-11T10:32:17.362Z,27.11
2018-09-11T10:34:47.224Z,26.99
2018-09-11T10:37:16.863Z,26.84
2018-09-11T10:39:46.615Z,27.41
2018-09-11T10:42:17.299Z,27.60
2018-09-11T10:44:46.859Z,27.36
2018-09-11T10:47:16.354Z,27.24
2018-09-11T10:49:46.524Z,27.38
2018-09-11T10:52:16.204Z,27.60
2018-09-11T10:54:45.490Z,27.62
2018-09-11T10:57:15.181Z,27.57
2018-09-11T10:59:45.710Z,27.62
2018-09-11T11:02:15.384Z,27.78
2018-09-11T11:04:44.652Z,28.06
2018-09-11T11:07:14.265Z,28.56
2018-09-11T11:09:44.180Z,28.62
2018-09-11T11:12:14.137Z,28.94
2018-09-11T11:14:44.190Z,29.23
2018-09-11T11:17:13.770Z,29.02
2018-09-11T11:19:43.315Z,29.05
2018-09-11T11:22:12.955Z,30.36
2018-09-11T11:24:42.370Z,30.42
2018-09-11T11:27:12.368Z,30.47
2018-09-11T11:29:41.643Z,30.13
2018-09-11T11:32:11.328Z,29.28
2018-09-11T11:34:41.068Z,28.93
2018-09-11T11:37:10.624Z,29.90
2018-09-11T11:39:40.044Z,29.47
2018-09-11T11:42:10.011Z,29.95
2018-09-11T11:44:40.235Z,30.76
2018-09-11T11:47:09.755Z,31.48
2018-09-11T11:49:39.330Z,30.10
2018-09-11T11:52:08.607Z,31.36
2018-09-11T11:54:38.088Z,31.82
2018-09-11T11:57:08.279Z,32.49
2018-09-11T11:59:38.099Z,31.60
2018-09-11T12:02:07.533Z,31.60
2018-09-11T12:04:36.907Z,31.02
2018-09-11T12:07:06.859Z,30.33
2018-09-11T12:09:36.347Z,30.26
2018-09-11T12:12:06.274Z,30.90
2018-09-11T12:14:36.408Z,32.87
2018-09-11T12:17:06.746Z,32.15
2018-09-11T12:19:36.404Z,31.63
2018-09-11T12:22:07.115Z,31.82
2018-09-11T12:24:36.630Z,30.18
2018-09-11T12:27:06.527Z,31.16
2018-09-11T12:29:35.973Z,31.28
2018-09-11T12:32:05.494Z,30.61
2018-09-11T12:34:35.286Z,29.67
2018-09-11T12:37:05.398Z,29.68
2018-09-11T12:39:35.274Z,29.67
2018-09-11T12:42:04.815Z,29.35
2018-09-11T12:44:34.966Z,29.44
2018-09-11T12:47:05.284Z,29.31
2018-09-11T12:49:34.991Z,29.29
2018-09-11T12:52:04.498Z,28.94
2018-09-11T12:54:34.045Z,29.30
2018-09-11T12:57:03.895Z,29.27
2018-09-11T12:59:33.431Z,28.61
2018-09-11T13:02:03.610Z,29.03
2018-09-11T13:04:33.855Z,29.12
2018-09-11T13:07:03.560Z,29.14
2018-09-11T13:09:33.125Z,29.31
2018-09-11T13:12:02.335Z,29.12
2018-09-11T13:14:32.480Z,29.06
2018-09-11T13:17:01.970Z,28.83
2018-09-11T13:19:31.547Z,28.99
2018-09-11T13:22:00.811Z,29.08
2018-09-11T13:24:30.603Z,28.94
2018-09-11T13:27:00.163Z,28.91
2018-09-11T13:29:29.747Z,28.96
2018-09-11T13:31:59.229Z,28.89
2018-09-11T13:34:29.533Z,29.06
2018-09-11T13:36:59.258Z,29.01
2018-09-11T13:39:28.952Z,29.24
2018-09-11T13:41:58.471Z,28.77
2018-09-11T13:44:28.186Z,28.76
2018-09-11T13:46:57.792Z,28.90
2018-09-11T13:49:27.640Z,28.77
2018-09-11T13:51:56.888Z,28.99
2018-09-11T13:54:26.683Z,28.57
2018-09-11T13:56:57.251Z,28.82
2018-09-11T13:59:27.670Z,28.89
2018-09-11T14:01:57.610Z,29.05
2018-09-11T14:04:27.498Z,28.70
2018-09-11T14:06:57.018Z,28.74
2018-09-11T14:09:26.890Z,29.01
2018-09-11T14:11:56.246Z,28.87
2018-09-11T14:14:25.902Z,29.15
2018-09-11T14:16:55.479Z,29.26
2018-09-11T14:19:24.916Z,29.23
2018-09-11T14:21:54.455Z,29.07
2018-09-11T14:24:23.930Z,29.05
2018-09-11T14:26:53.725Z,29.03
2018-09-11T14:29:23.795Z,28.92
2018-09-11T14:31:53.286Z,29.02
2018-09-11T14:34:23.540Z,29.07
2018-09-11T14:36:52.936Z,29.06
2018-09-11T14:39:22.423Z,28.86
2018-09-11T14:41:51.934Z,29.00
2018-09-11T14:44:21.800Z,29.07
2018-09-11T14:46:51.411Z,29.04
2018-09-11T14:49:21.078Z,28.92
2018-09-11T14:51:50.665Z,28.76
2018-09-11T14:54:20.063Z,28.83
2018-09-11T14:56:49.520Z,28.66
2018-09-11T14:59:20.103Z,28.67
2018-09-11T15:01:49.583Z,28.88
2018-09-11T15:04:19.587Z,28.85
2018-09-11T15:06:49.239Z,28.74
2018-09-11T15:09:19.242Z,28.75
2018-09-11T15:11:48.613Z,28.87
2018-09-11T15:14:19.178Z,28.70
2018-09-11T15:16:49.091Z,28.88
2018-09-11T15:19:19.003Z,28.87
2018-09-11T15:21:48.493Z,28.90
2018-09-11T15:24:18.593Z,28.83
2018-09-11T15:26:48.602Z,28.84
2018-09-11T15:29:17.844Z,28.71
2018-09-11T15:31:48.130Z,28.64
2018-09-11T15:34:17.682Z,28.66
2018-09-11T15:36:47.161Z,28.73
2018-09-11T15:39:16.948Z,28.54
2018-09-11T15:41:47.009Z,28.48
2018-09-11T15:44:16.719Z,28.37
2018-09-11T15:46:45.996Z,28.32
2018-09-11T15:49:15.525Z,28.31
2018-09-11T15:51:44.803Z,28.35
2018-09-11T15:54:15.238Z,28.38
2018-09-11T15:56:45.260Z,28.33
2018-09-11T15:59:14.958Z,28.31
2018-09-11T16:01:44.534Z,28.16
2018-09-11T16:04:15.442Z,28.21
2018-09-11T16:06:45.174Z,28.14
2018-09-11T16:09:15.276Z,28.14
2018-09-11T16:11:45.112Z,28.03
2018-09-11T16:14:14.894Z,28.03
2018-09-11T16:16:44.307Z,27.90
2018-09-11T16:19:13.719Z,27.79
2018-09-11T16:21:43.425Z,27.79
2018-09-11T16:24:13.497Z,27.77
2018-09-11T16:26:43.725Z,27.76
2018-09-11T16:29:13.845Z,27.80
2018-09-11T16:31:44.271Z,27.79
2018-09-11T16:34:14.225Z,27.85
2018-09-11T16:36:43.732Z,27.62
2018-09-11T16:39:13.632Z,27.70
2018-09-11T16:41:43.056Z,27.64
2018-09-11T16:44:12.614Z,27.51
2018-09-11T16:46:42.665Z,27.41
2018-09-11T16:49:12.529Z,27.53
2018-09-11T16:51:42.350Z,27.38
2018-09-11T16:54:11.896Z,27.40
2018-09-11T16:56:41.739Z,27.32
2018-09-11T16:59:11.344Z,27.20
2018-09-11T17:01:40.782Z,27.11
2018-09-11T17:04:10.831Z,27.00
2018-09-11T17:06:40.375Z,27.01
2018-09-11T17:09:10.617Z,26.91
2018-09-11T17:11:39.852Z,26.86
2018-09-11T17:14:09.360Z,26.92
2018-09-11T17:16:38.844Z,26.85
2018-09-11T17:19:08.152Z,26.65
2018-09-11T17:21:38.050Z,26.59
2018-09-11T17:24:07.771Z,26.67
2018-09-11T17:26:37.626Z,26.44
2018-09-11T17:29:07.067Z,26.39
2018-09-11T17:31:36.508Z,26.33
2018-09-11T17:34:05.827Z,26.28
2018-09-11T17:36:35.719Z,26.30
2018-09-11T17:39:08.669Z,26.20
2018-09-11T17:41:38.931Z,26.13
2018-09-11T17:44:08.343Z,25.95
2018-09-11T17:46:38.351Z,25.84
2018-09-11T17:49:07.765Z,25.75
2018-09-11T17:51:37.855Z,25.70
2018-09-11T17:54:07.202Z,25.65
2018-09-11T17:56:36.472Z,25.58
2018-09-11T17:59:06.337Z,25.53
2018-09-11T18:01:35.658Z,25.49
2018-09-11T18:04:05.126Z,25.43
2018-09-11T18:06:34.680Z,25.31
2018-09-11T18:09:05.259Z,25.28
2018-09-11T18:11:34.758Z,25.06
2018-09-11T18:14:04.591Z,24.90
2018-09-11T18:16:34.583Z,24.34
2018-09-11T18:19:03.828Z,24.43
2018-09-11T18:21:33.536Z,24.14
2018-09-11T18:24:03.275Z,24.02
2018-09-11T18:26:32.808Z,23.85
2018-09-11T18:29:02.842Z,23.72
2018-09-11T18:31:32.567Z,23.66
2018-09-11T18:34:02.079Z,23.41
2018-09-11T18:36:31.830Z,23.35
2018-09-11T18:39:01.719Z,23.43
2018-09-11T18:41:31.215Z,23.43
2018-09-11T18:44:00.738Z,23.51
2018-09-11T18:46:30.593Z,23.46
2018-09-11T18:49:00.312Z,23.41
2018-09-11T18:51:29.946Z,23.21
2018-09-11T18:53:59.346Z,23.15
2018-09-11T18:56:28.876Z,23.12
2018-09-11T18:58:58.186Z,23.03
2018-09-11T19:01:27.691Z,22.89
2018-09-11T19:03:58.227Z,22.87
2018-09-11T19:06:27.624Z,22.80
2018-09-11T19:08:57.014Z,22.58
2018-09-11T19:11:26.290Z,22.48
2018-09-11T19:13:55.603Z,22.38
2018-09-11T19:16:25.135Z,22.24
2018-09-11T19:18:54.826Z,22.33
2018-09-11T19:21:24.160Z,22.26
2018-09-11T19:23:53.601Z,22.24
2018-09-11T19:26:23.313Z,22.18
2018-09-11T19:28:53.899Z,21.91
2018-09-11T19:31:24.155Z,21.70
2018-09-11T19:33:53.722Z,21.66
2018-09-11T19:36:23.245Z,21.97
2018-09-11T19:38:52.851Z,21.91
2018-09-11T19:41:22.229Z,21.93
2018-09-11T19:43:51.703Z,21.87
2018-09-11T19:46:21.220Z,21.94
2018-09-11T19:48:50.698Z,21.84
2018-09-11T19:51:21.010Z,21.82
2018-09-11T19:53:50.535Z,21.75
2018-09-11T19:56:24.561Z,21.79
2018-09-11T19:58:54.101Z,21.97
2018-09-11T20:01:23.827Z,21.92
2018-09-11T20:03:53.272Z,22.06
2018-09-11T20:06:22.791Z,22.05
2018-09-11T20:08:52.285Z,22.02
2018-09-11T20:11:21.803Z,21.82
2018-09-11T20:13:51.503Z,21.84
2018-09-11T20:16:20.727Z,21.81
2018-09-11T20:18:50.553Z,21.77
2018-09-11T20:21:20.016Z,21.64
2018-09-11T20:23:49.330Z,21.67
2018-09-11T20:26:19.020Z,21.67
2018-09-11T20:28:49.161Z,21.47
2018-09-11T20:31:19.501Z,21.42
2018-09-11T20:33:48.984Z,21.34
2018-09-11T20:36:18.915Z,21.52
2018-09-11T20:38:49.365Z,21.42
2018-09-11T20:41:19.249Z,21.38
2018-09-11T20:43:48.631Z,21.48
2018-09-11T20:46:17.887Z,21.58
2018-09-11T20:48:47.474Z,21.61
2018-09-11T20:51:17.114Z,21.59
2018-09-11T20:53:47.015Z,21.65
2018-09-11T20:56:16.356Z,21.59
2018-09-11T20:58:46.720Z,21.79
2018-09-11T21:01:16.659Z,21.71
2018-09-11T21:03:47.147Z,21.72
2018-09-11T21:06:17.198Z,21.72
2018-09-11T21:08:46.904Z,21.88
2018-09-11T21:11:16.794Z,21.93
2018-09-11T21:13:46.807Z,21.93
2018-09-11T21:16:16.751Z,21.90
2018-09-11T21:18:46.938Z,21.97
2018-09-11T21:21:16.738Z,21.98
2018-09-11T21:23:47.043Z,22.02
2018-09-11T21:26:16.307Z,22.04
2018-09-11T21:28:46.840Z,22.14
2018-09-11T21:31:16.079Z,22.03
2018-09-11T21:33:47.383Z,21.99
2018-09-11T21:36:17.000Z,22.02
2018-09-11T21:38:46.791Z,22.04
2018-09-11T21:41:16.374Z,22.04
2018-09-11T21:43:46.793Z,21.97
2018-09-11T21:46:16.842Z,21.94
2018-09-11T21:48:46.830Z,21.95
2018-09-11T21:51:17.199Z,21.90
2018-09-11T21:53:46.643Z,21.85
2018-09-11T21:56:16.927Z,21.83
2018-09-11T21:58:47.573Z,21.82
2018-09-11T22:01:22.796Z,21.79
2018-09-11T22:03:52.908Z,21.46
2018-09-11T22:06:22.584Z,21.70
2018-09-11T22:08:53.096Z,21.48
2018-09-11T22:11:23.259Z,21.68
2018-09-11T22:13:52.971Z,21.61
2018-09-11T22:16:22.214Z,21.65
2018-09-11T22:18:52.028Z,21.68
2018-09-11T22:21:21.458Z,21.63
2018-09-11T22:23:51.447Z,21.57
2018-09-11T22:26:20.726Z,21.57
2018-09-11T22:28:51.081Z,21.57
2018-09-11T22:31:20.892Z,21.55
2018-09-11T22:33:50.611Z,21.52
2018-09-11T22:36:20.386Z,21.48
2018-09-11T22:38:49.848Z,21.41
2018-09-11T22:41:19.931Z,21.42
2018-09-11T22:43:50.230Z,21.35
2018-09-11T22:46:19.814Z,21.32
2018-09-11T22:48:49.503Z,21.28
2018-09-11T22:51:18.754Z,21.30
2018-09-11T22:53:48.554Z,21.29
2018-09-11T22:56:18.422Z,21.28
2018-09-11T22:58:48.233Z,21.29
2018-09-11T23:01:17.623Z,21.20
2018-09-11T23:03:47.115Z,21.34
2018-09-11T23:06:16.430Z,21.24
2018-09-11T23:08:46.303Z,21.22
2018-09-11T23:11:16.019Z,21.06
2018-09-11T23:13:45.576Z,20.96
2018-09-11T23:16:15.335Z,20.62
2018-09-11T23:18:45.419Z,20.39
2018-09-11T23:21:14.766Z,20.30
2018-09-11T23:23:44.322Z,20.12
2018-09-11T23:26:13.711Z,20.02
2018-09-11T23:28:42.992Z,19.92
2018-09-11T23:31:12.496Z,19.79
2018-09-11T23:33:41.734Z,19.71
2018-09-11T23:36:11.832Z,19.73
2018-09-11T23:38:41.827Z,19.65
2018-09-11T23:41:11.369Z,19.47
2018-09-11T23:43:41.603Z,19.41
2018-09-11T23:46:11.168Z,19.19
2018-09-11T23:48:40.675Z,19.10
2018-09-11T23:51:10.165Z,19.02
2018-09-11T23:53:40.338Z,18.99
2018-09-11T23:56:09.815Z,19.02
2018-09-11T23:58:39.311Z,18.95
